createdAt,value
2023-01-10T00:02:13.982Z,14.13
2023-01-10T00:04:42.537Z,14.10
2023-01-10T00:07:12.413Z,17.00
2023-01-10T00:09:41.026Z,15.50
2023-01-10T00:12:27.026Z,13.97
2023-01-10T00:14:55.894Z,15.53
2023-01-10T00:17:24.446Z,19.67
2023-01-10T00:19:52.860Z,16.83
2023-01-10T00:22:25.261Z,17.77
2023-01-10T00:24:53.841Z,17.90
2023-01-10T00:27:23.593Z,18.53
2023-01-10T00:29:53.216Z,16.80
2023-01-10T00:32:21.834Z,15.60
2023-01-10T00:34:50.253Z,17.57
2023-01-10T00:37:18.747Z,16.67
2023-01-10T00:39:51.287Z,19.83
2023-01-10T00:42:37.135Z,20.17
2023-01-10T00:45:05.888Z,15.80
2023-01-10T00:47:40.418Z,15.83
2023-01-10T00:50:09.844Z,19.87
2023-01-10T00:52:38.223Z,14.60
2023-01-10T00:55:08.881Z,17.17
2023-01-10T00:57:37.261Z,18.97
2023-01-10T01:00:07.745Z,22.33
2023-01-10T01:02:36.139Z,15.43
2023-01-10T01:05:04.580Z,22.07
2023-01-10T01:07:32.945Z,24.00
2023-01-10T01:10:18.845Z,19.33
2023-01-10T01:12:48.586Z,14.87
2023-01-10T01:15:17.088Z,19.07
2023-01-10T01:17:45.540Z,19.10
2023-01-10T01:20:13.958Z,18.10
2023-01-10T01:22:42.411Z,15.67
2023-01-10T01:25:11.031Z,20.87
2023-01-10T01:27:39.417Z,13.93
2023-01-10T01:30:11.533Z,20.53
2023-01-10T01:32:40.048Z,30.33
2023-01-10T01:35:09.351Z,16.70
2023-01-10T01:37:37.759Z,25.50
2023-01-10T01:40:07.609Z,19.63
2023-01-10T01:42:36.364Z,21.43
2023-01-10T01:45:23.199Z,23.80
2023-01-10T01:47:54.018Z,16.70
2023-01-10T01:50:23.375Z,20.50
2023-01-10T01:52:52.053Z,27.00
2023-01-10T01:55:20.605Z,18.57
2023-01-10T01:57:49.051Z,17.13
2023-01-10T02:00:17.652Z,18.43
2023-01-10T02:03:01.210Z,14.77
2023-01-10T02:05:31.797Z,21.80
2023-01-10T02:08:02.105Z,17.83
2023-01-10T02:10:31.924Z,18.13
2023-01-10T02:13:00.975Z,16.80
2023-01-10T02:15:29.595Z,18.97
2023-01-10T02:17:58.033Z,21.13
2023-01-10T02:20:26.699Z,20.30
2023-01-10T02:23:12.794Z,20.10
2023-01-10T02:26:00.539Z,20.40
2023-01-10T02:28:49.790Z,20.40
2023-01-10T02:31:21.624Z,26.43
2023-01-10T02:33:51.833Z,14.43
2023-01-10T02:36:22.505Z,16.93
2023-01-10T02:38:53.763Z,21.93
2023-01-10T02:41:24.174Z,17.13
2023-01-10T02:43:52.860Z,22.00
2023-01-10T02:46:25.302Z,22.90
2023-01-10T02:48:55.327Z,21.33
2023-01-10T02:51:24.255Z,22.80
2023-01-10T02:53:53.482Z,17.13
2023-01-10T02:56:27.077Z,25.07
2023-01-10T02:59:03.764Z,15.03
2023-01-10T03:01:33.943Z,24.47
2023-01-10T03:04:05.236Z,16.33
2023-01-10T03:06:34.061Z,17.63
2023-01-10T03:09:04.946Z,26.60
2023-01-10T03:11:43.966Z,21.73
2023-01-10T03:14:14.604Z,21.57
2023-01-10T03:16:43.097Z,18.80
2023-01-10T03:19:13.510Z,17.73
2023-01-10T03:21:42.279Z,25.60
2023-01-10T03:24:11.501Z,19.53
2023-01-10T03:26:41.910Z,22.93
2023-01-10T03:29:11.136Z,28.93
2023-01-10T03:31:41.404Z,20.33
2023-01-10T03:34:10.084Z,27.37
2023-01-10T03:36:41.867Z,20.30
2023-01-10T03:39:12.159Z,18.90
2023-01-10T03:41:51.126Z,25.67
2023-01-10T03:44:37.643Z,23.83
2023-01-10T03:47:07.254Z,15.77
2023-01-10T03:49:35.765Z,20.30
2023-01-10T03:52:05.757Z,19.70
2023-01-10T03:54:34.163Z,17.63
2023-01-10T03:57:02.976Z,21.10
2023-01-10T03:59:31.520Z,18.20
2023-01-10T04:02:00.005Z,18.83
2023-01-10T04:04:28.798Z,23.03
2023-01-10T04:06:57.398Z,19.50
2023-01-10T04:09:27.154Z,23.03
2023-01-10T04:11:55.756Z,17.57
2023-01-10T04:14:24.447Z,23.57
2023-01-10T04:16:52.988Z,26.47
2023-01-10T04:19:21.501Z,24.03
2023-01-10T04:21:49.973Z,26.17
2023-01-10T04:24:18.383Z,18.27
2023-01-10T04:26:48.236Z,17.97
2023-01-10T04:29:16.710Z,22.77
2023-01-10T04:31:45.113Z,20.70
2023-01-10T04:34:13.743Z,21.63
2023-01-10T04:36:42.403Z,19.90
2023-01-10T04:39:11.074Z,25.37
2023-01-10T04:41:39.628Z,23.87
2023-01-10T04:44:09.746Z,26.27
2023-01-10T04:46:38.289Z,16.53
2023-01-10T04:49:07.439Z,23.03
2023-01-10T04:51:35.902Z,32.77
2023-01-10T04:54:04.444Z,16.63
2023-01-10T04:56:36.023Z,23.90
2023-01-10T04:59:06.492Z,21.67
2023-01-10T05:01:39.152Z,21.87
2023-01-10T05:04:07.863Z,22.10
2023-01-10T05:06:37.206Z,19.67
2023-01-10T05:09:05.671Z,22.73
2023-01-10T05:11:34.112Z,15.80
2023-01-10T05:14:02.645Z,20.50
2023-01-10T05:16:31.033Z,22.10
2023-01-10T05:19:01.006Z,24.73
2023-01-10T05:21:29.463Z,16.80
2023-01-10T05:23:57.895Z,20.30
2023-01-10T05:26:26.291Z,23.33
2023-01-10T05:28:54.670Z,15.43
2023-01-10T05:31:23.257Z,24.30
2023-01-10T05:33:52.420Z,18.77
2023-01-10T05:36:22.387Z,15.10
2023-01-10T05:38:50.938Z,26.90
2023-01-10T05:41:19.604Z,23.83
2023-01-10T05:43:48.348Z,16.00
2023-01-10T05:46:16.966Z,20.17
2023-01-10T05:48:45.707Z,20.93
2023-01-10T05:51:14.803Z,16.47
2023-01-10T05:53:44.568Z,24.10
2023-01-10T05:56:13.316Z,27.70
2023-01-10T05:58:42.134Z,17.80
2023-01-10T06:01:10.661Z,25.40
2023-01-10T06:03:39.101Z,25.93
2023-01-10T06:06:08.017Z,21.60
2023-01-10T06:08:37.262Z,20.70
2023-01-10T06:11:07.268Z,19.27
2023-01-10T06:13:35.783Z,24.07
2023-01-10T06:16:05.083Z,19.90
2023-01-10T06:18:33.833Z,20.33
2023-01-10T06:21:02.234Z,22.97
2023-01-10T06:23:30.735Z,26.13
2023-01-10T06:25:59.249Z,21.77
2023-01-10T06:28:29.323Z,28.60
2023-01-10T06:30:57.779Z,22.23
2023-01-10T06:33:26.608Z,19.53
2023-01-10T06:35:55.229Z,24.67
2023-01-10T06:38:23.977Z,13.23
2023-01-10T06:40:52.404Z,17.87
2023-01-10T06:43:20.913Z,25.83
2023-01-10T06:45:50.816Z,19.53
2023-01-10T06:48:19.361Z,21.57
2023-01-10T06:50:47.757Z,20.13
2023-01-10T06:53:16.300Z,23.43
2023-01-10T06:55:47.638Z,20.70
2023-01-10T06:58:18.544Z,19.53
2023-01-10T07:00:47.259Z,21.57
2023-01-10T07:03:17.154Z,19.83
2023-01-10T07:05:45.568Z,17.37
2023-01-10T07:08:14.399Z,20.50
2023-01-10T07:10:42.842Z,24.07
2023-01-10T07:13:11.439Z,22.77
2023-01-10T07:15:39.960Z,22.10
2023-01-10T07:18:10.258Z,20.13
2023-01-10T07:20:41.110Z,17.37
2023-01-10T07:23:09.679Z,27.10
2023-01-10T07:25:38.117Z,22.83
2023-01-10T07:28:07.006Z,20.27
2023-01-10T07:30:35.800Z,27.87
2023-01-10T07:33:06.323Z,20.97
2023-01-10T07:35:35.106Z,25.13
2023-01-10T07:38:05.126Z,20.33
2023-01-10T07:40:33.744Z,22.47
2023-01-10T07:43:02.241Z,23.47
2023-01-10T07:45:30.636Z,27.60
2023-01-10T07:47:59.318Z,25.73
2023-01-10T07:50:28.057Z,22.73
2023-01-10T07:52:56.437Z,32.80
2023-01-10T07:55:26.332Z,22.60
2023-01-10T07:57:54.940Z,23.53
2023-01-10T08:00:23.668Z,25.37
2023-01-10T08:02:54.936Z,18.23
2023-01-10T08:05:23.678Z,23.53
2023-01-10T08:07:53.819Z,22.83
2023-01-10T08:10:22.233Z,22.03
2023-01-10T08:12:52.904Z,22.43
2023-01-10T08:15:21.312Z,18.97
2023-01-10T08:17:49.978Z,18.50
2023-01-10T08:20:18.688Z,20.23
2023-01-10T08:22:47.143Z,31.37
2023-01-10T08:25:17.684Z,30.03
2023-01-10T08:27:46.502Z,20.67
2023-01-10T08:30:16.984Z,23.30
2023-01-10T08:32:45.490Z,17.43
2023-01-10T08:35:14.106Z,17.77
2023-01-10T08:37:42.639Z,20.63
2023-01-10T08:40:11.653Z,22.97
2023-01-10T08:42:40.430Z,25.30
2023-01-10T08:45:09.735Z,30.07
2023-01-10T08:47:39.827Z,25.47
2023-01-10T08:50:08.485Z,22.87
2023-01-10T08:52:37.103Z,23.27
2023-01-10T08:55:05.550Z,25.07
2023-01-10T08:57:34.254Z,23.30
2023-01-10T09:00:02.720Z,24.73
2023-01-10T09:02:31.232Z,29.00
2023-01-10T09:05:01.188Z,26.07
2023-01-10T09:07:29.736Z,24.57
2023-01-10T09:09:58.412Z,21.10
2023-01-10T09:12:44.639Z,32.97
2023-01-10T09:15:13.485Z,26.13
2023-01-10T09:17:42.035Z,26.17
2023-01-10T09:20:12.623Z,18.90
2023-01-10T09:22:41.080Z,35.40
2023-01-10T09:25:09.870Z,36.67
2023-01-10T09:27:38.575Z,32.80
2023-01-10T09:30:07.349Z,25.07
2023-01-10T09:32:35.758Z,24.73
2023-01-10T09:35:04.379Z,23.97
2023-01-10T09:37:34.683Z,24.70
2023-01-10T09:40:03.214Z,22.53
2023-01-10T09:42:39.526Z,20.90
2023-01-10T09:45:09.919Z,21.00
2023-01-10T09:47:40.481Z,25.03
2023-01-10T09:50:12.399Z,23.77
2023-01-10T09:52:44.174Z,18.73
2023-01-10T09:55:18.563Z,21.63
2023-01-10T09:57:47.054Z,23.23
2023-01-10T10:00:18.175Z,21.30
2023-01-10T10:02:47.419Z,23.23
2023-01-10T10:05:19.223Z,23.40
2023-01-10T10:07:49.569Z,23.77
2023-01-10T10:10:18.856Z,23.50
2023-01-10T10:12:49.416Z,26.40
2023-01-10T10:15:20.531Z,27.70
2023-01-10T10:17:51.350Z,31.43
2023-01-10T10:20:26.089Z,16.57
2023-01-10T10:22:59.113Z,25.13
2023-01-10T10:25:33.096Z,21.40
2023-01-10T10:28:05.960Z,21.73
2023-01-10T10:30:37.351Z,25.00
2023-01-10T10:33:08.894Z,25.93
2023-01-10T10:35:38.329Z,26.37
2023-01-10T10:38:10.806Z,21.43
2023-01-10T10:40:39.779Z,24.23
2023-01-10T10:43:13.821Z,20.90
2023-01-10T10:45:43.943Z,39.40
2023-01-10T10:48:14.555Z,18.73
2023-01-10T10:50:44.559Z,20.80
2023-01-10T10:53:18.919Z,23.43
2023-01-10T10:55:47.504Z,21.50
2023-01-10T10:58:16.085Z,25.30
2023-01-10T11:00:44.839Z,19.13
2023-01-10T11:03:17.869Z,24.73
2023-01-10T11:05:46.613Z,20.40
2023-01-10T11:08:16.836Z,27.60
2023-01-10T11:10:46.294Z,20.90
2023-01-10T11:13:16.957Z,24.07
2023-01-10T11:15:46.608Z,21.70
2023-01-10T11:18:16.372Z,19.37
2023-01-10T11:20:51.663Z,27.73
2023-01-10T11:23:30.208Z,27.63
2023-01-10T11:25:58.663Z,29.03
2023-01-10T11:28:28.037Z,16.60
2023-01-10T11:30:56.581Z,23.87
2023-01-10T11:33:27.999Z,27.17
2023-01-10T11:36:00.744Z,24.33
2023-01-10T11:38:31.178Z,24.87
2023-01-10T11:41:00.557Z,22.23
2023-01-10T11:43:30.190Z,17.47
2023-01-10T11:46:02.355Z,16.20
2023-01-10T11:49:03.691Z,15.73
2023-01-10T11:51:24.810Z,18.27
2023-01-10T11:53:57.079Z,20.33
2023-01-10T11:56:26.088Z,14.60
2023-01-10T11:58:54.403Z,19.30
2023-01-10T12:01:27.548Z,22.60
2023-01-10T12:03:56.184Z,14.97
2023-01-10T12:06:24.669Z,31.63
2023-01-10T12:08:56.295Z,17.73
2023-01-10T12:11:27.682Z,18.67
2023-01-10T12:13:57.175Z,21.50
2023-01-10T12:16:26.107Z,21.03
2023-01-10T12:18:55.350Z,18.63
2023-01-10T12:21:28.202Z,23.63
2023-01-10T12:23:58.672Z,16.67
2023-01-10T12:26:28.867Z,22.43
2023-01-10T12:28:58.901Z,21.80
2023-01-10T12:31:27.560Z,24.17
2023-01-10T12:33:58.099Z,26.07
2023-01-10T12:36:32.930Z,17.50
2023-01-10T12:39:06.548Z,17.63
2023-01-10T12:41:57.572Z,18.97
2023-01-10T12:44:27.669Z,20.63
2023-01-10T12:47:07.381Z,20.70
2023-01-10T12:49:37.957Z,16.57
2023-01-10T12:52:07.249Z,17.43
2023-01-10T12:54:35.634Z,14.47
2023-01-10T12:57:16.804Z,23.57
2023-01-10T12:59:45.403Z,16.50
2023-01-10T13:02:17.315Z,15.77
2023-01-10T13:04:51.826Z,16.40
2023-01-10T13:07:21.812Z,15.13
2023-01-10T13:09:59.886Z,18.70
2023-01-10T13:12:34.222Z,15.10
2023-01-10T13:15:04.467Z,17.20
2023-01-10T13:17:36.456Z,23.77
2023-01-10T13:20:20.714Z,16.37
2023-01-10T13:22:51.353Z,24.30
2023-01-10T13:25:21.385Z,19.17
2023-01-10T13:27:51.414Z,20.70
2023-01-10T13:30:26.129Z,13.50
2023-01-10T13:32:56.836Z,22.07
2023-01-10T13:35:26.593Z,20.40
2023-01-10T13:37:55.512Z,22.77
2023-01-10T13:40:26.008Z,13.03
2023-01-10T13:43:20.310Z,13.77
2023-01-10T13:45:50.482Z,15.90
2023-01-10T13:48:25.693Z,14.23
2023-01-10T13:51:05.866Z,16.70
2023-01-10T13:54:07.381Z,14.80
2023-01-10T13:56:36.674Z,15.20
2023-01-10T13:59:23.340Z,18.27
2023-01-10T14:02:11.537Z,15.07
2023-01-10T14:04:41.085Z,16.53
2023-01-10T14:07:15.020Z,12.70
2023-01-10T14:09:44.902Z,15.07
2023-01-10T14:12:34.198Z,13.37
2023-01-10T14:15:04.439Z,14.40
2023-01-10T14:17:34.402Z,19.23
2023-01-10T14:20:24.803Z,14.87
2023-01-10T14:23:00.544Z,21.10
2023-01-10T14:25:28.987Z,17.23
2023-01-10T14:27:59.664Z,15.07
2023-01-10T14:30:39.326Z,11.87
2023-01-10T14:33:09.579Z,12.03
2023-01-10T14:35:41.081Z,10.87
2023-01-10T14:38:25.866Z,19.37
2023-01-10T14:41:09.236Z,12.87
2023-01-10T14:43:40.557Z,15.40
2023-01-10T14:46:22.494Z,14.40
2023-01-10T14:48:53.365Z,13.33
2023-01-10T14:51:23.759Z,12.47
2023-01-10T14:54:18.710Z,10.73
2023-01-10T14:56:52.096Z,7.60
2023-01-10T14:59:31.332Z,15.70
2023-01-10T15:02:07.838Z,9.00
2023-01-10T15:04:47.939Z,9.63
2023-01-10T15:07:17.616Z,11.73
2023-01-10T15:10:09.633Z,14.13
2023-01-10T15:12:38.306Z,11.27
2023-01-10T15:15:20.208Z,7.83
2023-01-10T15:17:48.780Z,9.10
2023-01-10T15:20:33.712Z,9.77
2023-01-10T15:23:02.753Z,7.47
2023-01-10T15:25:31.807Z,9.47
2023-01-10T15:28:00.401Z,11.93
2023-01-10T15:30:29.233Z,12.17
2023-01-10T15:32:58.480Z,7.20
2023-01-10T15:35:36.341Z,6.30
2023-01-10T15:38:06.018Z,7.90
2023-01-10T15:40:34.760Z,7.70
2023-01-10T15:43:13.548Z,7.50
2023-01-10T15:45:42.914Z,5.23
2023-01-10T15:48:26.287Z,11.87
2023-01-10T15:51:03.615Z,8.23
2023-01-10T15:53:51.834Z,5.33
2023-01-10T15:56:20.969Z,7.10
2023-01-10T15:58:50.052Z,7.67
2023-01-10T16:01:18.816Z,4.60
2023-01-10T16:03:47.984Z,5.10
2023-01-10T16:06:21.851Z,4.73
2023-01-10T16:08:50.584Z,7.40
2023-01-10T16:11:39.757Z,5.33
2023-01-10T16:14:07.255Z,4.77
2023-01-10T16:16:35.963Z,5.43
2023-01-10T16:19:04.661Z,5.63
2023-01-10T16:21:36.650Z,5.30
2023-01-10T16:24:05.305Z,6.47
2023-01-10T16:26:33.975Z,6.83
2023-01-10T16:29:02.666Z,5.67
2023-01-10T16:31:31.054Z,4.37
2023-01-10T16:33:59.543Z,5.23
2023-01-10T16:36:27.974Z,8.97
2023-01-10T16:38:57.760Z,6.93
2023-01-10T16:41:43.660Z,7.20
2023-01-10T16:44:12.094Z,6.33
2023-01-10T16:46:40.619Z,11.57
2023-01-10T16:49:09.232Z,8.67
2023-01-10T16:51:39.729Z,7.63
2023-01-10T16:54:10.482Z,10.00
2023-01-10T16:56:38.935Z,7.27
2023-01-10T16:59:07.760Z,9.90
2023-01-10T17:01:38.002Z,9.63
2023-01-10T17:04:07.778Z,10.93
2023-01-10T17:06:36.639Z,11.23
2023-01-10T17:09:05.225Z,9.17
2023-01-10T17:11:35.864Z,11.43
2023-01-10T17:14:05.336Z,12.27
2023-01-10T17:16:35.036Z,10.90
2023-01-10T17:19:04.104Z,14.23
2023-01-10T17:21:34.528Z,13.13
2023-01-10T17:24:02.922Z,11.77
2023-01-10T17:26:31.327Z,10.00
2023-01-10T17:29:01.170Z,14.43
2023-01-10T17:31:29.701Z,11.63
2023-01-10T17:33:58.260Z,12.73
2023-01-10T17:36:42.992Z,15.27
2023-01-10T17:39:11.571Z,14.80
2023-01-10T17:41:40.119Z,14.03
2023-01-10T17:44:10.425Z,15.83
2023-01-10T17:46:39.900Z,13.70
2023-01-10T17:49:08.428Z,13.43
2023-01-10T17:51:37.058Z,15.10
2023-01-10T17:54:05.594Z,14.33
2023-01-10T17:56:33.935Z,13.63
2023-01-10T17:59:02.355Z,13.17
2023-01-10T18:01:32.175Z,14.53
2023-01-10T18:04:00.758Z,15.33
2023-01-10T18:06:29.181Z,13.97
2023-01-10T18:08:57.552Z,14.67
2023-01-10T18:11:25.988Z,13.60
2023-01-10T18:13:55.918Z,19.10
2023-01-10T18:16:27.097Z,17.10
2023-01-10T18:18:57.499Z,14.77
2023-01-10T18:21:26.197Z,15.10
2023-01-10T18:23:57.099Z,18.50
2023-01-10T18:26:25.559Z,20.93
2023-01-10T18:28:54.215Z,17.03
2023-01-10T18:31:23.025Z,16.97
2023-01-10T18:33:51.408Z,19.10
2023-01-10T18:36:21.993Z,16.50
2023-01-10T18:38:50.800Z,17.97
2023-01-10T18:41:19.419Z,17.80
2023-01-10T18:43:47.873Z,18.27
2023-01-10T18:46:18.596Z,16.23
2023-01-10T18:48:47.169Z,16.93
2023-01-10T18:51:15.877Z,18.50
2023-01-10T18:53:45.660Z,16.07
2023-01-10T18:56:14.766Z,16.63
2023-01-10T18:58:43.696Z,15.40
2023-01-10T19:01:12.730Z,17.83
2023-01-10T19:03:41.431Z,18.67
2023-01-10T19:06:10.984Z,16.60
2023-01-10T19:08:39.751Z,14.90
2023-01-10T19:11:14.836Z,15.53
2023-01-10T19:13:44.236Z,15.47
2023-01-10T19:16:13.437Z,14.83
2023-01-10T19:18:41.926Z,12.57
2023-01-10T19:21:15.183Z,12.00
2023-01-10T19:23:44.192Z,12.60
2023-01-10T19:26:14.375Z,12.47
2023-01-10T19:28:43.133Z,15.30
2023-01-10T19:31:11.990Z,13.50
2023-01-10T19:33:41.750Z,13.67
2023-01-10T19:36:10.608Z,13.27
2023-01-10T19:38:39.295Z,11.00
2023-01-10T19:41:07.720Z,16.73
2023-01-10T19:43:37.495Z,14.47
2023-01-10T19:46:09.169Z,17.93
2023-01-10T19:48:39.302Z,17.87
2023-01-10T19:51:08.510Z,22.53
2023-01-10T19:53:40.055Z,18.13
2023-01-10T19:56:10.090Z,15.03
2023-01-10T19:58:40.625Z,14.83
2023-01-10T20:01:10.042Z,14.63
2023-01-10T20:03:41.153Z,12.63
2023-01-10T20:06:09.808Z,14.87
2023-01-10T20:08:38.240Z,12.00
2023-01-10T20:11:07.152Z,14.83
2023-01-10T20:13:37.209Z,11.93
2023-01-10T20:16:10.370Z,16.43
2023-01-10T20:18:38.767Z,13.30
2023-01-10T20:21:07.591Z,14.17
2023-01-10T20:23:36.113Z,18.37
2023-01-10T20:26:06.413Z,15.80
2023-01-10T20:28:34.819Z,14.97
2023-01-10T20:31:03.275Z,13.10
2023-01-10T20:33:34.520Z,22.20
2023-01-10T20:36:04.361Z,15.57
2023-01-10T20:38:33.521Z,13.03
2023-01-10T20:41:02.514Z,15.93
2023-01-10T20:43:31.213Z,15.27
2023-01-10T20:45:59.823Z,16.77
2023-01-10T20:48:28.378Z,15.17
2023-01-10T20:50:58.591Z,14.90
2023-01-10T20:53:27.068Z,16.43
2023-01-10T20:55:59.958Z,18.17
2023-01-10T20:58:28.764Z,16.13
2023-01-10T21:00:57.598Z,17.80
2023-01-10T21:03:26.057Z,15.37
2023-01-10T21:05:54.704Z,17.13
2023-01-10T21:08:24.805Z,15.20
2023-01-10T21:10:53.333Z,15.10
2023-01-10T21:13:21.788Z,16.47
2023-01-10T21:15:50.317Z,17.30
2023-01-10T21:18:18.657Z,13.33
2023-01-10T21:20:47.887Z,16.37
2023-01-10T21:23:17.651Z,16.63
2023-01-10T21:25:47.683Z,17.70
2023-01-10T21:28:16.068Z,15.70
2023-01-10T21:30:45.888Z,16.70
2023-01-10T21:33:14.490Z,15.20
2023-01-10T21:35:43.041Z,16.67
2023-01-10T21:38:12.176Z,17.93
2023-01-10T21:40:42.130Z,16.63
2023-01-10T21:43:12.353Z,14.70
2023-01-10T21:45:41.059Z,18.27
2023-01-10T21:48:09.632Z,15.90
2023-01-10T21:50:38.475Z,16.40
2023-01-10T21:53:06.909Z,15.60
2023-01-10T21:55:35.502Z,12.50
2023-01-10T21:58:04.015Z,16.93
2023-01-10T22:00:33.809Z,12.23
2023-01-10T22:03:04.234Z,12.30
2023-01-10T22:05:32.755Z,14.17
2023-01-10T22:08:01.199Z,12.43
2023-01-10T22:10:30.227Z,12.23
2023-01-10T22:12:58.676Z,16.20
2023-01-10T22:15:28.089Z,13.80
2023-01-10T22:17:58.535Z,13.73
2023-01-10T22:20:26.986Z,16.20
2023-01-10T22:22:55.475Z,13.47
2023-01-10T22:25:23.916Z,13.73
2023-01-10T22:27:53.437Z,15.40
2023-01-10T22:30:21.961Z,14.80
2023-01-10T22:32:50.457Z,15.87
2023-01-10T22:35:20.155Z,12.83
2023-01-10T22:37:48.533Z,13.97
2023-01-10T22:40:16.920Z,14.27
2023-01-10T22:42:45.401Z,17.90
2023-01-10T22:45:13.789Z,15.97
2023-01-10T22:47:42.288Z,14.40
2023-01-10T22:50:11.235Z,12.67
2023-01-10T22:52:41.152Z,15.90
2023-01-10T22:55:10.774Z,15.80
2023-01-10T22:57:47.264Z,17.83
2023-01-10T23:00:16.481Z,12.17
2023-01-10T23:02:45.117Z,15.23
2023-01-10T23:05:13.593Z,14.07
2023-01-10T23:07:43.454Z,13.83
2023-01-10T23:10:28.743Z,11.40
2023-01-10T23:12:57.880Z,11.90
2023-01-10T23:15:26.315Z,12.10
2023-01-10T23:17:54.679Z,12.30
2023-01-10T23:20:23.439Z,14.23
2023-01-10T23:22:53.273Z,19.67
2023-01-10T23:25:21.763Z,10.67
2023-01-10T23:27:50.369Z,14.47
2023-01-10T23:30:18.937Z,11.10
2023-01-10T23:32:47.534Z,11.70
2023-01-10T23:35:15.923Z,12.10
2023-01-10T23:37:44.371Z,13.37
2023-01-10T23:40:14.825Z,12.97
2023-01-10T23:42:43.224Z,12.03
2023-01-10T23:45:11.955Z,14.23
2023-01-10T23:47:40.389Z,13.70
2023-01-10T23:50:09.390Z,12.03
2023-01-10T23:52:37.824Z,11.57
2023-01-10T23:55:06.619Z,12.77
2023-01-10T23:57:36.372Z,13.90
